sensor_id;sensor_type;location;lat;lon;timestamp;temperature;humidity
68274;SHT30;55104;47.356;19.448;2022-12-18T00:00:22;-0.68;85.50
68274;SHT30;55104;47.356;19.448;2022-12-18T00:03:24;-0.75;85.42
68274;SHT30;55104;47.356;19.448;2022-12-18T00:06:28;-0.72;85.48
68274;SHT30;55104;47.356;19.448;2022-12-18T00:09:30;-0.75;85.43
68274;SHT30;55104;47.356;19.448;2022-12-18T00:12:41;-0.69;85.69
68274;SHT30;55104;47.356;19.448;2022-12-18T00:15:43;-0.74;86.06
68274;SHT30;55104;47.356;19.448;2022-12-18T00:18:45;-0.79;86.01
68274;SHT30;55104;47.356;19.448;2022-12-18T00:21:47;-0.79;86.43
68274;SHT30;55104;47.356;19.448;2022-12-18T00:24:48;-0.77;86.09
68274;SHT30;55104;47.356;19.448;2022-12-18T00:27:50;-0.84;86.56
68274;SHT30;55104;47.356;19.448;2022-12-18T00:31:03;-0.77;86.60
68274;SHT30;55104;47.356;19.448;2022-12-18T00:34:09;-0.75;86.76
68274;SHT30;55104;47.356;19.448;2022-12-18T00:37:14;-0.69;86.48
68274;SHT30;55104;47.356;19.448;2022-12-18T00:40:25;-0.71;86.23
68274;SHT30;55104;47.356;19.448;2022-12-18T00:43:28;-0.74;85.88
68274;SHT30;55104;47.356;19.448;2022-12-18T00:46:30;-0.77;86.41
68274;SHT30;55104;47.356;19.448;2022-12-18T00:49:32;-0.75;86.52
68274;SHT30;55104;47.356;19.448;2022-12-18T00:52:34;-0.79;86.84
68274;SHT30;55104;47.356;19.448;2022-12-18T00:55:40;-0.79;87.31
68274;SHT30;55104;47.356;19.448;2022-12-18T00:58:42;-0.77;86.79
68274;SHT30;55104;47.356;19.448;2022-12-18T01:01:45;-0.75;86.88
68274;SHT30;55104;47.356;19.448;2022-12-18T01:04:48;-0.69;86.69
68274;SHT30;55104;47.356;19.448;2022-12-18T01:07:55;-0.71;86.79
68274;SHT30;55104;47.356;19.448;2022-12-18T01:10:57;-0.78;87.25
68274;SHT30;55104;47.356;19.448;2022-12-18T01:14:00;-0.77;87.17
68274;SHT30;55104;47.356;19.448;2022-12-18T01:17:02;-0.84;87.13
68274;SHT30;55104;47.356;19.448;2022-12-18T01:20:08;-0.84;87.61
68274;SHT30;55104;47.356;19.448;2022-12-18T01:23:10;-0.82;87.64
68274;SHT30;55104;47.356;19.448;2022-12-18T01:26:14;-0.68;87.16
68274;SHT30;55104;47.356;19.448;2022-12-18T01:29:18;-0.72;86.93
68274;SHT30;55104;47.356;19.448;2022-12-18T01:32:20;-0.74;86.67
68274;SHT30;55104;47.356;19.448;2022-12-18T01:35:21;-0.78;86.79
68274;SHT30;55104;47.356;19.448;2022-12-18T01:38:24;-0.82;86.99
68274;SHT30;55104;47.356;19.448;2022-12-18T01:41:28;-0.79;86.97
68274;SHT30;55104;47.356;19.448;2022-12-18T01:45:00;-0.78;86.81
68274;SHT30;55104;47.356;19.448;2022-12-18T01:48:05;-0.81;86.70
68274;SHT30;55104;47.356;19.448;2022-12-18T01:51:10;-0.77;86.73
68274;SHT30;55104;47.356;19.448;2022-12-18T01:54:12;-0.79;86.57
68274;SHT30;55104;47.356;19.448;2022-12-18T01:57:15;-0.86;87.25
68274;SHT30;55104;47.356;19.448;2022-12-18T02:00:19;-0.85;87.47
68274;SHT30;55104;47.356;19.448;2022-12-18T02:03:21;-0.93;86.95
68274;SHT30;55104;47.356;19.448;2022-12-18T02:06:31;-0.92;87.43
68274;SHT30;55104;47.356;19.448;2022-12-18T02:09:51;-1.00;87.19
68274;SHT30;55104;47.356;19.448;2022-12-18T02:16:38;-0.97;87.54
68274;SHT30;55104;47.356;19.448;2022-12-18T02:26:16;-0.97;87.33
68274;SHT30;55104;47.356;19.448;2022-12-18T02:29:50;-1.05;87.19
68274;SHT30;55104;47.356;19.448;2022-12-18T02:33:00;-1.06;87.84
68274;SHT30;55104;47.356;19.448;2022-12-18T02:36:08;-1.00;87.50
68274;SHT30;55104;47.356;19.448;2022-12-18T02:39:13;-0.97;87.50
68274;SHT30;55104;47.356;19.448;2022-12-18T02:42:27;-1.10;87.69
68274;SHT30;55104;47.356;19.448;2022-12-18T02:45:29;-1.15;87.78
68274;SHT30;55104;47.356;19.448;2022-12-18T02:48:34;-1.10;87.57
68274;SHT30;55104;47.356;19.448;2022-12-18T03:05:20;-1.33;88.68
68274;SHT30;55104;47.356;19.448;2022-12-18T03:08:31;-1.37;88.75
68274;SHT30;55104;47.356;19.448;2022-12-18T03:11:39;-1.48;89.06
68274;SHT30;55104;47.356;19.448;2022-12-18T03:15:09;-1.50;89.33
68274;SHT30;55104;47.356;19.448;2022-12-18T03:18:24;-1.57;89.29
68274;SHT30;55104;47.356;19.448;2022-12-18T03:21:35;-1.65;89.54
68274;SHT30;55104;47.356;19.448;2022-12-18T03:24:38;-1.70;89.71
68274;SHT30;55104;47.356;19.448;2022-12-18T03:27:46;-1.75;89.77
68274;SHT30;55104;47.356;19.448;2022-12-18T03:30:55;-1.79;90.07
68274;SHT30;55104;47.356;19.448;2022-12-18T03:34:04;-1.79;90.11
68274;SHT30;55104;47.356;19.448;2022-12-18T03:37:15;-1.83;90.20
68274;SHT30;55104;47.356;19.448;2022-12-18T03:40:18;-1.86;90.29
68274;SHT30;55104;47.356;19.448;2022-12-18T03:43:52;-1.88;90.48
68274;SHT30;55104;47.356;19.448;2022-12-18T03:47:09;-2.00;90.82
68274;SHT30;55104;47.356;19.448;2022-12-18T03:50:47;-2.16;91.38
68274;SHT30;55104;47.356;19.448;2022-12-18T03:54:01;-2.19;91.58
68274;SHT30;55104;47.356;19.448;2022-12-18T03:57:12;-2.29;92.13
68274;SHT30;55104;47.356;19.448;2022-12-18T04:00:17;-2.33;92.04
68274;SHT30;55104;47.356;19.448;2022-12-18T04:03:35;-2.38;92.16
68274;SHT30;55104;47.356;19.448;2022-12-18T04:06:40;-2.38;92.11
68274;SHT30;55104;47.356;19.448;2022-12-18T04:09:45;-2.38;92.09
68274;SHT30;55104;47.356;19.448;2022-12-18T04:12:48;-2.41;92.19
68274;SHT30;55104;47.356;19.448;2022-12-18T04:15:50;-2.45;92.49
68274;SHT30;55104;47.356;19.448;2022-12-18T04:18:55;-2.50;92.38
68274;SHT30;55104;47.356;19.448;2022-12-18T04:21:59;-2.61;92.51
68274;SHT30;55104;47.356;19.448;2022-12-18T04:25:04;-2.62;92.61
68274;SHT30;55104;47.356;19.448;2022-12-18T04:28:14;-2.62;92.37
68274;SHT30;55104;47.356;19.448;2022-12-18T04:31:16;-2.71;92.52
68274;SHT30;55104;47.356;19.448;2022-12-18T04:34:18;-2.75;92.72
68274;SHT30;55104;47.356;19.448;2022-12-18T04:37:26;-2.64;92.28
68274;SHT30;55104;47.356;19.448;2022-12-18T04:40:29;-2.75;92.32
68274;SHT30;55104;47.356;19.448;2022-12-18T04:43:31;-2.85;92.43
68274;SHT30;55104;47.356;19.448;2022-12-18T04:46:34;-3.00;92.84
68274;SHT30;55104;47.356;19.448;2022-12-18T04:49:36;-2.92;92.85
68274;SHT30;55104;47.356;19.448;2022-12-18T04:52:38;-3.02;93.26
68274;SHT30;55104;47.356;19.448;2022-12-18T04:55:40;-3.02;93.45
68274;SHT30;55104;47.356;19.448;2022-12-18T04:58:43;-3.07;93.53
68274;SHT30;55104;47.356;19.448;2022-12-18T05:01:45;-3.00;93.20
68274;SHT30;55104;47.356;19.448;2022-12-18T05:04:47;-3.00;93.13
68274;SHT30;55104;47.356;19.448;2022-12-18T05:07:49;-3.06;93.01
68274;SHT30;55104;47.356;19.448;2022-12-18T05:11:02;-3.13;93.11
68274;SHT30;55104;47.356;19.448;2022-12-18T05:14:04;-3.13;93.14
68274;SHT30;55104;47.356;19.448;2022-12-18T05:17:06;-3.20;93.56
68274;SHT30;55104;47.356;19.448;2022-12-18T05:20:08;-3.20;93.32
68274;SHT30;55104;47.356;19.448;2022-12-18T05:23:11;-3.27;93.58
68274;SHT30;55104;47.356;19.448;2022-12-18T05:26:17;-3.27;93.62
68274;SHT30;55104;47.356;19.448;2022-12-18T05:29:19;-3.31;93.55
68274;SHT30;55104;47.356;19.448;2022-12-18T05:32:21;-3.33;93.78
68274;SHT30;55104;47.356;19.448;2022-12-18T05:35:23;-3.36;93.59
68274;SHT30;55104;47.356;19.448;2022-12-18T05:38:26;-3.40;93.39
68274;SHT30;55104;47.356;19.448;2022-12-18T05:41:28;-3.46;92.96
68274;SHT30;55104;47.356;19.448;2022-12-18T05:44:30;-3.54;92.97
68274;SHT30;55104;47.356;19.448;2022-12-18T05:47:32;-3.57;93.19
68274;SHT30;55104;47.356;19.448;2022-12-18T05:50:39;-3.62;93.10
68274;SHT30;55104;47.356;19.448;2022-12-18T05:53:42;-3.68;93.14
68274;SHT30;55104;47.356;19.448;2022-12-18T05:56:44;-3.72;93.00
68274;SHT30;55104;47.356;19.448;2022-12-18T05:59:49;-3.76;93.29
68274;SHT30;55104;47.356;19.448;2022-12-18T06:02:51;-3.74;93.21
68274;SHT30;55104;47.356;19.448;2022-12-18T06:05:53;-3.81;92.90
68274;SHT30;55104;47.356;19.448;2022-12-18T06:08:56;-3.90;93.04
68274;SHT30;55104;47.356;19.448;2022-12-18T06:11:58;-3.89;93.73
68274;SHT30;55104;47.356;19.448;2022-12-18T06:15:00;-3.93;94.43
68274;SHT30;55104;47.356;19.448;2022-12-18T06:18:03;-3.93;94.47
68274;SHT30;55104;47.356;19.448;2022-12-18T06:21:05;-3.90;94.16
68274;SHT30;55104;47.356;19.448;2022-12-18T06:24:07;-3.96;93.99
68274;SHT30;55104;47.356;19.448;2022-12-18T06:27:09;-3.99;94.29
68274;SHT30;55104;47.356;19.448;2022-12-18T06:30:13;-3.94;94.47
68274;SHT30;55104;47.356;19.448;2022-12-18T06:33:16;-3.93;94.49
68274;SHT30;55104;47.356;19.448;2022-12-18T06:36:18;-4.00;93.96
68274;SHT30;55104;47.356;19.448;2022-12-18T06:39:21;-4.00;93.95
68274;SHT30;55104;47.356;19.448;2022-12-18T06:42:24;-4.06;93.32
68274;SHT30;55104;47.356;19.448;2022-12-18T06:45:26;-4.10;93.25
68274;SHT30;55104;47.356;19.448;2022-12-18T06:48:28;-4.13;93.43
68274;SHT30;55104;47.356;19.448;2022-12-18T06:51:30;-4.11;94.13
68274;SHT30;55104;47.356;19.448;2022-12-18T06:54:32;-4.03;94.56
68274;SHT30;55104;47.356;19.448;2022-12-18T06:57:34;-4.03;94.72
68274;SHT30;55104;47.356;19.448;2022-12-18T07:00:37;-4.00;94.78
68274;SHT30;55104;47.356;19.448;2022-12-18T07:03:40;-3.99;94.69
68274;SHT30;55104;47.356;19.448;2022-12-18T07:06:43;-3.90;94.50
68274;SHT30;55104;47.356;19.448;2022-12-18T07:09:45;-3.89;94.54
68274;SHT30;55104;47.356;19.448;2022-12-18T07:12:47;-3.78;94.62
68274;SHT30;55104;47.356;19.448;2022-12-18T07:15:49;-3.64;94.62
68274;SHT30;55104;47.356;19.448;2022-12-18T07:18:52;-3.65;94.12
68274;SHT30;55104;47.356;19.448;2022-12-18T07:21:55;-3.68;93.96
68274;SHT30;55104;47.356;19.448;2022-12-18T07:24:58;-3.71;93.63
68274;SHT30;55104;47.356;19.448;2022-12-18T07:28:00;-3.68;93.72
68274;SHT30;55104;47.356;19.448;2022-12-18T07:31:04;-3.64;93.59
68274;SHT30;55104;47.356;19.448;2022-12-18T07:34:11;-3.64;93.62
68274;SHT30;55104;47.356;19.448;2022-12-18T07:37:13;-3.52;93.48
68274;SHT30;55104;47.356;19.448;2022-12-18T07:40:15;-3.47;93.20
68274;SHT30;55104;47.356;19.448;2022-12-18T07:43:18;-3.41;93.23
68274;SHT30;55104;47.356;19.448;2022-12-18T07:46:19;-3.36;93.10
68274;SHT30;55104;47.356;19.448;2022-12-18T07:49:21;-3.27;92.86
68274;SHT30;55104;47.356;19.448;2022-12-18T07:52:24;-3.27;92.87
68274;SHT30;55104;47.356;19.448;2022-12-18T07:55:27;-3.14;92.59
68274;SHT30;55104;47.356;19.448;2022-12-18T07:58:31;-3.04;92.17
68274;SHT30;55104;47.356;19.448;2022-12-18T08:01:33;-2.91;92.11
68274;SHT30;55104;47.356;19.448;2022-12-18T08:04:36;-2.82;92.13
68274;SHT30;55104;47.356;19.448;2022-12-18T08:07:38;-2.78;92.00
68274;SHT30;55104;47.356;19.448;2022-12-18T08:10:40;-2.69;91.62
68274;SHT30;55104;47.356;19.448;2022-12-18T08:13:42;-2.64;91.57
68274;SHT30;55104;47.356;19.448;2022-12-18T08:16:44;-2.45;91.41
68274;SHT30;55104;47.356;19.448;2022-12-18T08:19:46;-2.43;90.83
68274;SHT30;55104;47.356;19.448;2022-12-18T08:22:48;-2.25;90.03
68274;SHT30;55104;47.356;19.448;2022-12-18T08:25:50;-2.20;90.41
68274;SHT30;55104;47.356;19.448;2022-12-18T08:28:54;-2.13;89.80
68274;SHT30;55104;47.356;19.448;2022-12-18T08:31:56;-2.10;90.32
68274;SHT30;55104;47.356;19.448;2022-12-18T08:34:58;-2.06;90.70
68274;SHT30;55104;47.356;19.448;2022-12-18T08:38:00;-2.00;90.72
68274;SHT30;55104;47.356;19.448;2022-12-18T08:41:05;-1.92;90.51
68274;SHT30;55104;47.356;19.448;2022-12-18T08:44:07;-1.79;89.76
68274;SHT30;55104;47.356;19.448;2022-12-18T08:47:28;-1.77;89.50
68274;SHT30;55104;47.356;19.448;2022-12-18T08:50:30;-1.61;89.22
68274;SHT30;55104;47.356;19.448;2022-12-18T08:53:32;-1.57;88.39
68274;SHT30;55104;47.356;19.448;2022-12-18T08:56:36;-1.51;87.73
68274;SHT30;55104;47.356;19.448;2022-12-18T08:59:38;-1.34;88.60
68274;SHT30;55104;47.356;19.448;2022-12-18T09:02:40;-1.17;88.09
68274;SHT30;55104;47.356;19.448;2022-12-18T09:05:43;-1.05;86.62
68274;SHT30;55104;47.356;19.448;2022-12-18T09:08:47;-0.96;87.48
68274;SHT30;55104;47.356;19.448;2022-12-18T09:11:49;-0.86;86.86
68274;SHT30;55104;47.356;19.448;2022-12-18T09:14:51;-0.79;87.03
68274;SHT30;55104;47.356;19.448;2022-12-18T09:17:52;-0.72;87.20
68274;SHT30;55104;47.356;19.448;2022-12-18T09:20:55;-0.65;86.90
68274;SHT30;55104;47.356;19.448;2022-12-18T09:23:57;-0.54;85.68
68274;SHT30;55104;47.356;19.448;2022-12-18T09:26:59;-0.43;84.71
68274;SHT30;55104;47.356;19.448;2022-12-18T09:30:02;-0.40;85.16
68274;SHT30;55104;47.356;19.448;2022-12-18T09:33:04;-0.31;84.74
68274;SHT30;55104;47.356;19.448;2022-12-18T09:36:09;-0.26;85.27
68274;SHT30;55104;47.356;19.448;2022-12-18T09:39:12;-0.19;83.57
68274;SHT30;55104;47.356;19.448;2022-12-18T09:42:21;-0.10;85.17
68274;SHT30;55104;47.356;19.448;2022-12-18T09:45:23;0.09;85.63
68274;SHT30;55104;47.356;19.448;2022-12-18T09:48:31;0.24;84.97
68274;SHT30;55104;47.356;19.448;2022-12-18T09:51:39;0.36;83.29
68274;SHT30;55104;47.356;19.448;2022-12-18T09:54:49;0.32;83.00
68274;SHT30;55104;47.356;19.448;2022-12-18T09:57:55;0.33;82.94
68274;SHT30;55104;47.356;19.448;2022-12-18T10:00:59;0.52;82.76
68274;SHT30;55104;47.356;19.448;2022-12-18T10:04:02;0.60;81.34
68274;SHT30;55104;47.356;19.448;2022-12-18T10:07:27;0.71;81.47
68274;SHT30;55104;47.356;19.448;2022-12-18T10:10:49;0.69;80.26
68274;SHT30;55104;47.356;19.448;2022-12-18T10:17:33;0.83;82.37
68274;SHT30;55104;47.356;19.448;2022-12-18T10:20:45;0.92;80.81
68274;SHT30;55104;47.356;19.448;2022-12-18T10:24:11;1.09;81.58
68274;SHT30;55104;47.356;19.448;2022-12-18T10:27:18;1.26;81.33
68274;SHT30;55104;47.356;19.448;2022-12-18T10:30:23;1.15;81.22
68274;SHT30;55104;47.356;19.448;2022-12-18T10:33:29;1.12;80.23
68274;SHT30;55104;47.356;19.448;2022-12-18T10:36:32;1.24;80.53
68274;SHT30;55104;47.356;19.448;2022-12-18T10:39:34;1.35;81.21
68274;SHT30;55104;47.356;19.448;2022-12-18T10:42:36;1.42;80.39
68274;SHT30;55104;47.356;19.448;2022-12-18T10:45:39;1.50;79.75
68274;SHT30;55104;47.356;19.448;2022-12-18T10:51:49;1.64;79.49
68274;SHT30;55104;47.356;19.448;2022-12-18T10:54:55;1.71;78.39
68274;SHT30;55104;47.356;19.448;2022-12-18T11:01:57;1.93;77.90
68274;SHT30;55104;47.356;19.448;2022-12-18T11:05:00;2.01;78.55
68274;SHT30;55104;47.356;19.448;2022-12-18T11:08:02;2.05;78.24
68274;SHT30;55104;47.356;19.448;2022-12-18T11:11:15;1.99;77.65
68274;SHT30;55104;47.356;19.448;2022-12-18T11:14:24;2.15;77.59
68274;SHT30;55104;47.356;19.448;2022-12-18T11:17:31;2.35;78.39
68274;SHT30;55104;47.356;19.448;2022-12-18T11:20:35;2.22;76.47
68274;SHT30;55104;47.356;19.448;2022-12-18T11:23:47;2.14;76.23
68274;SHT30;55104;47.356;19.448;2022-12-18T11:26:51;2.26;76.99
68274;SHT30;55104;47.356;19.448;2022-12-18T11:30:21;2.39;76.39
68274;SHT30;55104;47.356;19.448;2022-12-18T11:33:25;2.39;75.95
68274;SHT30;55104;47.356;19.448;2022-12-18T11:36:38;2.54;77.17
68274;SHT30;55104;47.356;19.448;2022-12-18T11:39:54;2.49;75.53
68274;SHT30;55104;47.356;19.448;2022-12-18T11:43:07;2.64;75.14
68274;SHT30;55104;47.356;19.448;2022-12-18T11:46:32;2.72;76.10
68274;SHT30;55104;47.356;19.448;2022-12-18T11:49:36;2.67;75.56
68274;SHT30;55104;47.356;19.448;2022-12-18T11:52:39;2.77;74.94
68274;SHT30;55104;47.356;19.448;2022-12-18T12:06:09;3.05;72.86
68274;SHT30;55104;47.356;19.448;2022-12-18T12:12:53;3.02;73.39
68274;SHT30;55104;47.356;19.448;2022-12-18T12:19:37;2.88;71.82
68274;SHT30;55104;47.356;19.448;2022-12-18T12:26:00;3.07;74.13
68274;SHT30;55104;47.356;19.448;2022-12-18T12:29:32;3.02;72.49
68274;SHT30;55104;47.356;19.448;2022-12-18T12:36:27;3.29;72.44
68274;SHT30;55104;47.356;19.448;2022-12-18T12:39:35;3.26;72.03
68274;SHT30;55104;47.356;19.448;2022-12-18T12:42:41;3.29;71.19
68274;SHT30;55104;47.356;19.448;2022-12-18T12:46:12;3.32;70.94
68274;SHT30;55104;47.356;19.448;2022-12-18T12:49:19;3.11;71.26
68274;SHT30;55104;47.356;19.448;2022-12-18T12:52:42;3.21;72.48
68274;SHT30;55104;47.356;19.448;2022-12-18T12:55:45;3.12;72.36
68274;SHT30;55104;47.356;19.448;2022-12-18T12:59:01;3.05;73.19
68274;SHT30;55104;47.356;19.448;2022-12-18T13:02:23;3.00;73.05
68274;SHT30;55104;47.356;19.448;2022-12-18T13:08:55;2.83;73.47
68274;SHT30;55104;47.356;19.448;2022-12-18T13:12:05;2.70;73.76
68274;SHT30;55104;47.356;19.448;2022-12-18T13:15:42;2.83;74.81
68274;SHT30;55104;47.356;19.448;2022-12-18T13:18:54;2.92;73.70
68274;SHT30;55104;47.356;19.448;2022-12-18T13:21:59;2.88;73.71
68274;SHT30;55104;47.356;19.448;2022-12-18T13:25:02;2.81;73.39
68274;SHT30;55104;47.356;19.448;2022-12-18T13:28:13;2.72;72.82
68274;SHT30;55104;47.356;19.448;2022-12-18T13:34:29;2.61;73.52
68274;SHT30;55104;47.356;19.448;2022-12-18T13:37:40;2.52;73.43
68274;SHT30;55104;47.356;19.448;2022-12-18T13:43:52;2.28;73.70
68274;SHT30;55104;47.356;19.448;2022-12-18T13:46:55;2.18;73.98
68274;SHT30;55104;47.356;19.448;2022-12-18T13:49:57;2.12;74.75
68274;SHT30;55104;47.356;19.448;2022-12-18T13:53:00;2.09;74.84
68274;SHT30;55104;47.356;19.448;2022-12-18T13:56:03;1.97;75.81
68274;SHT30;55104;47.356;19.448;2022-12-18T13:59:17;1.87;75.57
68274;SHT30;55104;47.356;19.448;2022-12-18T14:02:25;1.88;75.37
68274;SHT30;55104;47.356;19.448;2022-12-18T14:08:37;1.64;77.08
68274;SHT30;55104;47.356;19.448;2022-12-18T14:11:40;1.54;76.79
68274;SHT30;55104;47.356;19.448;2022-12-18T14:14:48;1.39;77.69
68274;SHT30;55104;47.356;19.448;2022-12-18T14:17:58;1.26;77.93
68274;SHT30;55104;47.356;19.448;2022-12-18T14:21:02;1.26;78.24
68274;SHT30;55104;47.356;19.448;2022-12-18T14:27:25;1.02;79.54
68274;SHT30;55104;47.356;19.448;2022-12-18T14:30:35;0.94;79.45
68274;SHT30;55104;47.356;19.448;2022-12-18T14:33:37;0.91;79.58
68274;SHT30;55104;47.356;19.448;2022-12-18T14:36:40;0.80;80.17
68274;SHT30;55104;47.356;19.448;2022-12-18T14:39:55;0.67;80.60
68274;SHT30;55104;47.356;19.448;2022-12-18T14:42:58;0.52;81.83
68274;SHT30;55104;47.356;19.448;2022-12-18T14:46:02;0.36;82.08
68274;SHT30;55104;47.356;19.448;2022-12-18T14:52:33;0.08;83.24
68274;SHT30;55104;47.356;19.448;2022-12-18T14:55:35;-0.05;83.33
68274;SHT30;55104;47.356;19.448;2022-12-18T14:58:37;-0.10;83.90
68274;SHT30;55104;47.356;19.448;2022-12-18T15:01:46;-0.24;84.08
68274;SHT30;55104;47.356;19.448;2022-12-18T15:05:00;-0.36;84.53
68274;SHT30;55104;47.356;19.448;2022-12-18T15:08:02;-0.43;85.06
68274;SHT30;55104;47.356;19.448;2022-12-18T15:17:32;-0.69;86.76
68274;SHT30;55104;47.356;19.448;2022-12-18T15:20:51;-0.78;87.22
68274;SHT30;55104;47.356;19.448;2022-12-18T15:23:54;-0.89;87.46
68274;SHT30;55104;47.356;19.448;2022-12-18T15:26:57;-0.97;87.75
68274;SHT30;55104;47.356;19.448;2022-12-18T15:30:21;-1.06;88.01
68274;SHT30;55104;47.356;19.448;2022-12-18T15:33:26;-1.16;88.60
68274;SHT30;55104;47.356;19.448;2022-12-18T15:36:29;-1.23;88.89
68274;SHT30;55104;47.356;19.448;2022-12-18T15:39:32;-1.32;89.07
68274;SHT30;55104;47.356;19.448;2022-12-18T15:42:34;-1.37;89.00
68274;SHT30;55104;47.356;19.448;2022-12-18T15:45:54;-1.46;89.52
68274;SHT30;55104;47.356;19.448;2022-12-18T15:48:57;-1.48;89.86
68274;SHT30;55104;47.356;19.448;2022-12-18T15:52:03;-1.52;90.21
68274;SHT30;55104;47.356;19.448;2022-12-18T15:55:13;-1.58;90.31
68274;SHT30;55104;47.356;19.448;2022-12-18T15:58:34;-1.64;90.68
68274;SHT30;55104;47.356;19.448;2022-12-18T16:01:36;-1.72;90.87
68274;SHT30;55104;47.356;19.448;2022-12-18T16:04:43;-1.78;91.13
68274;SHT30;55104;47.356;19.448;2022-12-18T16:07:46;-1.79;91.20
68274;SHT30;55104;47.356;19.448;2022-12-18T16:10:48;-1.81;91.22
68274;SHT30;55104;47.356;19.448;2022-12-18T16:13:50;-1.82;90.96
68274;SHT30;55104;47.356;19.448;2022-12-18T16:16:54;-1.92;90.73
68274;SHT30;55104;47.356;19.448;2022-12-18T16:19:57;-1.98;90.78
68274;SHT30;55104;47.356;19.448;2022-12-18T16:23:02;-2.02;91.51
68274;SHT30;55104;47.356;19.448;2022-12-18T16:26:04;-2.05;91.75
68274;SHT30;55104;47.356;19.448;2022-12-18T16:29:06;-2.09;91.66
68274;SHT30;55104;47.356;19.448;2022-12-18T16:32:15;-2.14;92.12
68274;SHT30;55104;47.356;19.448;2022-12-18T16:35:17;-2.14;92.39
68274;SHT30;55104;47.356;19.448;2022-12-18T16:38:19;-2.22;92.32
68274;SHT30;55104;47.356;19.448;2022-12-18T16:41:21;-2.29;92.11
68274;SHT30;55104;47.356;19.448;2022-12-18T16:44:33;-2.29;92.61
68274;SHT30;55104;47.356;19.448;2022-12-18T16:47:37;-2.32;92.39
68274;SHT30;55104;47.356;19.448;2022-12-18T16:50:39;-2.32;92.23
68274;SHT30;55104;47.356;19.448;2022-12-18T16:53:41;-2.34;92.04
68274;SHT30;55104;47.356;19.448;2022-12-18T16:56:44;-2.43;92.10
68274;SHT30;55104;47.356;19.448;2022-12-18T16:59:46;-2.44;92.10
68274;SHT30;55104;47.356;19.448;2022-12-18T17:02:49;-2.44;92.12
68274;SHT30;55104;47.356;19.448;2022-12-18T17:05:51;-2.51;92.52
68274;SHT30;55104;47.356;19.448;2022-12-18T17:08:59;-2.55;93.27
68274;SHT30;55104;47.356;19.448;2022-12-18T17:12:02;-2.60;93.61
68274;SHT30;55104;47.356;19.448;2022-12-18T17:15:05;-2.60;93.47
68274;SHT30;55104;47.356;19.448;2022-12-18T17:18:08;-2.61;93.53
68274;SHT30;55104;47.356;19.448;2022-12-18T17:21:11;-2.68;92.94
68274;SHT30;55104;47.356;19.448;2022-12-18T17:24:15;-2.75;92.82
68274;SHT30;55104;47.356;19.448;2022-12-18T17:27:18;-2.81;92.74
68274;SHT30;55104;47.356;19.448;2022-12-18T17:30:20;-2.88;92.56
68274;SHT30;55104;47.356;19.448;2022-12-18T17:33:22;-2.89;92.80
68274;SHT30;55104;47.356;19.448;2022-12-18T17:36:25;-2.92;93.38
68274;SHT30;55104;47.356;19.448;2022-12-18T17:39:31;-2.93;93.17
68274;SHT30;55104;47.356;19.448;2022-12-18T17:42:34;-2.96;93.52
68274;SHT30;55104;47.356;19.448;2022-12-18T17:45:38;-2.96;93.67
68274;SHT30;55104;47.356;19.448;2022-12-18T17:48:41;-3.00;93.26
68274;SHT30;55104;47.356;19.448;2022-12-18T17:51:43;-3.02;92.97
68274;SHT30;55104;47.356;19.448;2022-12-18T17:54:45;-3.07;93.39
68274;SHT30;55104;47.356;19.448;2022-12-18T17:57:47;-3.10;93.74
68274;SHT30;55104;47.356;19.448;2022-12-18T18:00:50;-3.11;93.42
68274;SHT30;55104;47.356;19.448;2022-12-18T18:03:52;-3.17;93.58
68274;SHT30;55104;47.356;19.448;2022-12-18T18:06:56;-3.16;93.47
68274;SHT30;55104;47.356;19.448;2022-12-18T18:09:59;-3.17;93.80
68274;SHT30;55104;47.356;19.448;2022-12-18T18:13:01;-3.26;93.39
68274;SHT30;55104;47.356;19.448;2022-12-18T18:16:22;-3.30;93.40
68274;SHT30;55104;47.356;19.448;2022-12-18T18:19:24;-3.30;93.82
68274;SHT30;55104;47.356;19.448;2022-12-18T18:22:26;-3.30;94.00
68274;SHT30;55104;47.356;19.448;2022-12-18T18:25:28;-3.30;94.33
68274;SHT30;55104;47.356;19.448;2022-12-18T18:28:31;-3.30;94.58
68274;SHT30;55104;47.356;19.448;2022-12-18T18:31:33;-3.27;94.79
68274;SHT30;55104;47.356;19.448;2022-12-18T18:34:41;-3.19;94.30
68274;SHT30;55104;47.356;19.448;2022-12-18T18:37:43;-3.21;93.66
68274;SHT30;55104;47.356;19.448;2022-12-18T18:40:48;-3.26;93.43
68274;SHT30;55104;47.356;19.448;2022-12-18T18:43:54;-3.30;94.37
68274;SHT30;55104;47.356;19.448;2022-12-18T18:46:58;-3.28;94.42
68274;SHT30;55104;47.356;19.448;2022-12-18T18:50:02;-3.28;94.53
68274;SHT30;55104;47.356;19.448;2022-12-18T18:53:04;-3.30;94.67
68274;SHT30;55104;47.356;19.448;2022-12-18T18:56:07;-3.33;94.68
68274;SHT30;55104;47.356;19.448;2022-12-18T18:59:29;-3.31;94.33
68274;SHT30;55104;47.356;19.448;2022-12-18T19:02:32;-3.33;94.29
68274;SHT30;55104;47.356;19.448;2022-12-18T19:05:34;-3.37;94.30
68274;SHT30;55104;47.356;19.448;2022-12-18T19:08:37;-3.41;94.54
68274;SHT30;55104;47.356;19.448;2022-12-18T19:11:40;-3.40;94.43
68274;SHT30;55104;47.356;19.448;2022-12-18T19:15:01;-3.47;94.50
68274;SHT30;55104;47.356;19.448;2022-12-18T19:18:04;-3.51;94.13
68274;SHT30;55104;47.356;19.448;2022-12-18T19:21:06;-3.52;93.84
68274;SHT30;55104;47.356;19.448;2022-12-18T19:24:08;-3.54;94.39
68274;SHT30;55104;47.356;19.448;2022-12-18T19:27:10;-3.55;94.05
68274;SHT30;55104;47.356;19.448;2022-12-18T19:30:12;-3.62;93.81
68274;SHT30;55104;47.356;19.448;2022-12-18T19:33:14;-3.64;93.55
68274;SHT30;55104;47.356;19.448;2022-12-18T19:36:38;-3.64;93.56
68274;SHT30;55104;47.356;19.448;2022-12-18T19:39:40;-3.65;93.31
68274;SHT30;55104;47.356;19.448;2022-12-18T19:42:43;-3.64;93.10
68274;SHT30;55104;47.356;19.448;2022-12-18T19:45:53;-3.71;93.20
68274;SHT30;55104;47.356;19.448;2022-12-18T19:48:58;-3.72;94.33
68274;SHT30;55104;47.356;19.448;2022-12-18T19:52:01;-3.72;94.03
68274;SHT30;55104;47.356;19.448;2022-12-18T19:55:03;-3.76;93.78
68274;SHT30;55104;47.356;19.448;2022-12-18T19:58:05;-3.81;93.47
68274;SHT30;55104;47.356;19.448;2022-12-18T20:01:09;-3.78;93.48
68274;SHT30;55104;47.356;19.448;2022-12-18T20:04:12;-3.81;93.70
68274;SHT30;55104;47.356;19.448;2022-12-18T20:07:15;-3.85;94.63
68274;SHT30;55104;47.356;19.448;2022-12-18T20:10:17;-3.86;95.00
68274;SHT30;55104;47.356;19.448;2022-12-18T20:13:21;-3.86;94.93
68274;SHT30;55104;47.356;19.448;2022-12-18T20:16:23;-3.85;94.72
68274;SHT30;55104;47.356;19.448;2022-12-18T20:19:26;-3.71;95.14
68274;SHT30;55104;47.356;19.448;2022-12-18T20:22:28;-3.62;94.94
68274;SHT30;55104;47.356;19.448;2022-12-18T20:25:30;-3.41;94.99
68274;SHT30;55104;47.356;19.448;2022-12-18T20:28:32;-3.17;95.63
68274;SHT30;55104;47.356;19.448;2022-12-18T20:31:33;-3.09;95.14
68274;SHT30;55104;47.356;19.448;2022-12-18T20:34:36;-3.00;94.86
68274;SHT30;55104;47.356;19.448;2022-12-18T20:37:38;-2.97;95.20
68274;SHT30;55104;47.356;19.448;2022-12-18T20:40:43;-3.02;94.74
68274;SHT30;55104;47.356;19.448;2022-12-18T20:43:45;-3.06;94.61